sensor_id;sensor_type;location;lat;lon;timestamp;P1;durP1;ratioP1;P2;durP2;ratioP2
22644;SDS011;11489;50.834;6.752;2023-10-31T00:01:31;2.10;;;1.90;;
22644;SDS011;11489;50.834;6.752;2023-10-31T00:03:57;2.28;;;2.00;;
22644;SDS011;11489;50.834;6.752;2023-10-31T00:06:23;2.00;;;1.85;;
22644;SDS011;11489;50.834;6.752;2023-10-31T00:08:48;2.03;;;1.75;;
22644;SDS011;11489;50.834;6.752;2023-10-31T00:11:14;1.58;;;1.48;;
22644;SDS011;11489;50.834;6.752;2023-10-31T00:13:41;1.50;;;1.40;;
22644;SDS011;11489;50.834;6.752;2023-10-31T00:16:07;1.40;;;1.30;;
22644;SDS011;11489;50.834;6.752;2023-10-31T00:18:33;1.58;;;1.10;;
22644;SDS011;11489;50.834;6.752;2023-10-31T00:20:58;1.98;;;0.98;;
22644;SDS011;11489;50.834;6.752;2023-10-31T00:23:24;1.33;;;1.05;;
22644;SDS011;11489;50.834;6.752;2023-10-31T00:25:50;1.63;;;1.00;;
22644;SDS011;11489;50.834;6.752;2023-10-31T00:28:15;1.30;;;1.20;;
22644;SDS011;11489;50.834;6.752;2023-10-31T00:30:41;1.50;;;1.40;;
22644;SDS011;11489;50.834;6.752;2023-10-31T00:33:06;2.00;;;1.80;;
22644;SDS011;11489;50.834;6.752;2023-10-31T00:35:32;2.30;;;2.10;;
22644;SDS011;11489;50.834;6.752;2023-10-31T00:37:58;2.42;;;2.10;;
22644;SDS011;11489;50.834;6.752;2023-10-31T00:40:23;2.70;;;2.40;;
22644;SDS011;11489;50.834;6.752;2023-10-31T00:42:49;4.28;;;2.47;;
22644;SDS011;11489;50.834;6.752;2023-10-31T00:45:15;3.50;;;2.50;;
22644;SDS011;11489;50.834;6.752;2023-10-31T00:47:40;2.55;;;2.35;;
22644;SDS011;11489;50.834;6.752;2023-10-31T00:50:06;4.40;;;2.55;;
22644;SDS011;11489;50.834;6.752;2023-10-31T00:52:33;4.00;;;2.22;;
22644;SDS011;11489;50.834;6.752;2023-10-31T00:54:58;2.65;;;2.22;;
22644;SDS011;11489;50.834;6.752;2023-10-31T00:57:24;4.95;;;2.10;;
22644;SDS011;11489;50.834;6.752;2023-10-31T00:59:50;2.38;;;1.60;;
22644;SDS011;11489;50.834;6.752;2023-10-31T01:02:15;2.35;;;1.67;;
22644;SDS011;11489;50.834;6.752;2023-10-31T01:04:41;2.28;;;1.70;;
22644;SDS011;11489;50.834;6.752;2023-10-31T01:07:07;2.58;;;1.40;;
22644;SDS011;11489;50.834;6.752;2023-10-31T01:09:36;1.52;;;1.40;;
22644;SDS011;11489;50.834;6.752;2023-10-31T01:12:03;1.88;;;1.30;;
22644;SDS011;11489;50.834;6.752;2023-10-31T01:14:29;2.50;;;1.40;;
22644;SDS011;11489;50.834;6.752;2023-10-31T01:16:54;2.83;;;1.40;;
22644;SDS011;11489;50.834;6.752;2023-10-31T01:19:20;3.97;;;1.45;;
22644;SDS011;11489;50.834;6.752;2023-10-31T01:21:45;5.78;;;1.65;;
22644;SDS011;11489;50.834;6.752;2023-10-31T01:24:11;2.28;;;1.58;;
22644;SDS011;11489;50.834;6.752;2023-10-31T01:26:37;3.95;;;1.30;;
22644;SDS011;11489;50.834;6.752;2023-10-31T01:29:02;4.68;;;1.70;;
22644;SDS011;11489;50.834;6.752;2023-10-31T01:31:28;3.88;;;1.50;;
22644;SDS011;11489;50.834;6.752;2023-10-31T01:33:54;5.35;;;1.60;;
22644;SDS011;11489;50.834;6.752;2023-10-31T01:36:23;2.55;;;1.40;;
22644;SDS011;11489;50.834;6.752;2023-10-31T01:38:50;3.75;;;1.30;;
22644;SDS011;11489;50.834;6.752;2023-10-31T01:41:16;2.72;;;1.50;;
22644;SDS011;11489;50.834;6.752;2023-10-31T01:43:41;4.38;;;1.50;;
22644;SDS011;11489;50.834;6.752;2023-10-31T01:46:07;3.15;;;1.40;;
22644;SDS011;11489;50.834;6.752;2023-10-31T01:48:33;3.05;;;1.10;;
22644;SDS011;11489;50.834;6.752;2023-10-31T01:50:59;3.33;;;1.25;;
22644;SDS011;11489;50.834;6.752;2023-10-31T01:53:28;4.00;;;1.15;;
22644;SDS011;11489;50.834;6.752;2023-10-31T01:55:56;2.92;;;1.33;;
22644;SDS011;11489;50.834;6.752;2023-10-31T01:58:25;2.53;;;1.00;;
22644;SDS011;11489;50.834;6.752;2023-10-31T02:00:54;2.25;;;1.15;;
22644;SDS011;11489;50.834;6.752;2023-10-31T02:03:21;2.53;;;1.00;;
22644;SDS011;11489;50.834;6.752;2023-10-31T02:05:46;3.97;;;1.20;;
22644;SDS011;11489;50.834;6.752;2023-10-31T02:08:12;1.65;;;1.27;;
22644;SDS011;11489;50.834;6.752;2023-10-31T02:10:38;5.15;;;1.27;;
22644;SDS011;11489;50.834;6.752;2023-10-31T02:13:15;2.63;;;1.10;;
22644;SDS011;11489;50.834;6.752;2023-10-31T02:15:41;3.28;;;1.52;;
22644;SDS011;11489;50.834;6.752;2023-10-31T02:18:08;3.22;;;1.35;;
22644;SDS011;11489;50.834;6.752;2023-10-31T02:20:34;3.35;;;1.20;;
22644;SDS011;11489;50.834;6.752;2023-10-31T02:23:01;3.55;;;1.40;;
22644;SDS011;11489;50.834;6.752;2023-10-31T02:25:27;1.63;;;1.20;;
22644;SDS011;11489;50.834;6.752;2023-10-31T02:27:53;2.65;;;1.25;;
22644;SDS011;11489;50.834;6.752;2023-10-31T02:30:19;3.88;;;1.27;;
22644;SDS011;11489;50.834;6.752;2023-10-31T02:32:44;3.83;;;1.30;;
22644;SDS011;11489;50.834;6.752;2023-10-31T02:35:10;3.42;;;1.40;;
22644;SDS011;11489;50.834;6.752;2023-10-31T02:37:36;1.92;;;1.00;;
22644;SDS011;11489;50.834;6.752;2023-10-31T02:40:02;2.95;;;1.30;;
22644;SDS011;11489;50.834;6.752;2023-10-31T02:42:29;1.45;;;1.17;;
22644;SDS011;11489;50.834;6.752;2023-10-31T02:44:54;2.85;;;1.20;;
22644;SDS011;11489;50.834;6.752;2023-10-31T02:47:20;1.35;;;1.00;;
22644;SDS011;11489;50.834;6.752;2023-10-31T02:49:46;4.13;;;1.10;;
22644;SDS011;11489;50.834;6.752;2023-10-31T02:52:11;3.08;;;1.05;;
22644;SDS011;11489;50.834;6.752;2023-10-31T02:54:37;1.70;;;1.10;;
22644;SDS011;11489;50.834;6.752;2023-10-31T02:57:03;3.70;;;1.23;;
22644;SDS011;11489;50.834;6.752;2023-10-31T02:59:29;4.45;;;1.10;;
22644;SDS011;11489;50.834;6.752;2023-10-31T03:01:55;2.35;;;1.02;;
22644;SDS011;11489;50.834;6.752;2023-10-31T03:04:21;3.05;;;1.08;;
22644;SDS011;11489;50.834;6.752;2023-10-31T03:06:47;1.63;;;0.95;;
22644;SDS011;11489;50.834;6.752;2023-10-31T03:09:13;1.75;;;1.02;;
22644;SDS011;11489;50.834;6.752;2023-10-31T03:11:38;3.15;;;1.05;;
22644;SDS011;11489;50.834;6.752;2023-10-31T03:14:04;3.05;;;0.95;;
22644;SDS011;11489;50.834;6.752;2023-10-31T03:16:30;2.50;;;0.90;;
22644;SDS011;11489;50.834;6.752;2023-10-31T03:18:55;1.80;;;0.80;;
22644;SDS011;11489;50.834;6.752;2023-10-31T03:21:21;1.88;;;0.85;;
22644;SDS011;11489;50.834;6.752;2023-10-31T03:23:47;3.25;;;1.02;;
22644;SDS011;11489;50.834;6.752;2023-10-31T03:26:14;1.98;;;1.00;;
22644;SDS011;11489;50.834;6.752;2023-10-31T03:28:41;3.60;;;0.95;;
22644;SDS011;11489;50.834;6.752;2023-10-31T03:31:08;1.10;;;0.75;;
22644;SDS011;11489;50.834;6.752;2023-10-31T03:33:34;2.85;;;0.80;;
22644;SDS011;11489;50.834;6.752;2023-10-31T03:36:00;3.55;;;0.70;;
22644;SDS011;11489;50.834;6.752;2023-10-31T03:38:25;1.58;;;0.70;;
22644;SDS011;11489;50.834;6.752;2023-10-31T03:40:51;1.98;;;0.77;;
22644;SDS011;11489;50.834;6.752;2023-10-31T03:43:17;1.33;;;0.98;;
22644;SDS011;11489;50.834;6.752;2023-10-31T03:45:45;2.38;;;0.80;;
22644;SDS011;11489;50.834;6.752;2023-10-31T03:48:12;1.23;;;0.70;;
22644;SDS011;11489;50.834;6.752;2023-10-31T03:50:38;2.90;;;0.80;;
22644;SDS011;11489;50.834;6.752;2023-10-31T03:53:03;2.60;;;1.00;;
22644;SDS011;11489;50.834;6.752;2023-10-31T03:55:29;1.00;;;0.80;;
22644;SDS011;11489;50.834;6.752;2023-10-31T03:57:55;1.38;;;0.80;;
22644;SDS011;11489;50.834;6.752;2023-10-31T04:00:21;3.00;;;0.90;;
22644;SDS011;11489;50.834;6.752;2023-10-31T04:02:47;1.15;;;0.68;;
22644;SDS011;11489;50.834;6.752;2023-10-31T04:05:12;3.53;;;0.70;;
22644;SDS011;11489;50.834;6.752;2023-10-31T04:07:38;3.63;;;0.70;;
22644;SDS011;11489;50.834;6.752;2023-10-31T04:10:04;2.38;;;0.77;;
22644;SDS011;11489;50.834;6.752;2023-10-31T04:12:30;2.00;;;0.90;;
22644;SDS011;11489;50.834;6.752;2023-10-31T04:14:56;1.15;;;0.60;;
22644;SDS011;11489;50.834;6.752;2023-10-31T04:17:22;2.03;;;0.65;;
22644;SDS011;11489;50.834;6.752;2023-10-31T04:19:48;0.70;;;0.60;;
22644;SDS011;11489;50.834;6.752;2023-10-31T04:22:13;2.20;;;0.70;;
22644;SDS011;11489;50.834;6.752;2023-10-31T04:24:39;1.27;;;0.80;;
22644;SDS011;11489;50.834;6.752;2023-10-31T04:27:05;1.33;;;1.00;;
22644;SDS011;11489;50.834;6.752;2023-10-31T04:29:32;1.77;;;1.00;;
22644;SDS011;11489;50.834;6.752;2023-10-31T04:31:58;1.50;;;1.08;;
22644;SDS011;11489;50.834;6.752;2023-10-31T04:34:23;2.13;;;1.13;;
22644;SDS011;11489;50.834;6.752;2023-10-31T04:36:49;1.20;;;1.10;;
22644;SDS011;11489;50.834;6.752;2023-10-31T04:39:15;1.05;;;0.95;;
22644;SDS011;11489;50.834;6.752;2023-10-31T04:41:41;2.65;;;1.08;;
22644;SDS011;11489;50.834;6.752;2023-10-31T04:44:06;1.33;;;1.00;;
22644;SDS011;11489;50.834;6.752;2023-10-31T04:46:32;1.55;;;1.30;;
22644;SDS011;11489;50.834;6.752;2023-10-31T04:48:58;1.40;;;1.25;;
22644;SDS011;11489;50.834;6.752;2023-10-31T04:51:24;2.30;;;1.50;;
22644;SDS011;11489;50.834;6.752;2023-10-31T04:53:50;1.85;;;1.33;;
22644;SDS011;11489;50.834;6.752;2023-10-31T04:56:15;1.50;;;1.30;;
22644;SDS011;11489;50.834;6.752;2023-10-31T04:58:42;1.50;;;1.25;;
22644;SDS011;11489;50.834;6.752;2023-10-31T05:01:11;1.40;;;1.30;;
22644;SDS011;11489;50.834;6.752;2023-10-31T05:03:38;2.33;;;1.20;;
22644;SDS011;11489;50.834;6.752;2023-10-31T05:06:07;1.27;;;1.17;;
22644;SDS011;11489;50.834;6.752;2023-10-31T05:08:32;1.67;;;1.30;;
22644;SDS011;11489;50.834;6.752;2023-10-31T05:10:58;2.53;;;1.20;;
22644;SDS011;11489;50.834;6.752;2023-10-31T05:13:24;1.70;;;1.15;;
22644;SDS011;11489;50.834;6.752;2023-10-31T05:15:50;2.60;;;1.10;;
22644;SDS011;11489;50.834;6.752;2023-10-31T05:18:16;1.50;;;1.30;;
22644;SDS011;11489;50.834;6.752;2023-10-31T05:20:42;1.33;;;1.20;;
22644;SDS011;11489;50.834;6.752;2023-10-31T05:23:08;1.67;;;1.50;;
22644;SDS011;11489;50.834;6.752;2023-10-31T05:25:34;2.03;;;1.25;;
22644;SDS011;11489;50.834;6.752;2023-10-31T05:28:00;1.95;;;1.60;;
22644;SDS011;11489;50.834;6.752;2023-10-31T05:30:26;1.60;;;1.35;;
22644;SDS011;11489;50.834;6.752;2023-10-31T05:32:52;2.15;;;1.45;;
22644;SDS011;11489;50.834;6.752;2023-10-31T05:35:18;2.30;;;1.50;;
22644;SDS011;11489;50.834;6.752;2023-10-31T05:37:45;1.45;;;1.35;;
22644;SDS011;11489;50.834;6.752;2023-10-31T05:40:11;3.65;;;1.58;;
22644;SDS011;11489;50.834;6.752;2023-10-31T05:42:38;2.00;;;1.50;;
22644;SDS011;11489;50.834;6.752;2023-10-31T05:45:04;3.03;;;1.50;;
22644;SDS011;11489;50.834;6.752;2023-10-31T05:47:30;3.55;;;1.38;;
22644;SDS011;11489;50.834;6.752;2023-10-31T05:49:56;2.22;;;1.50;;
22644;SDS011;11489;50.834;6.752;2023-10-31T05:52:22;2.10;;;1.60;;
22644;SDS011;11489;50.834;6.752;2023-10-31T05:54:48;2.17;;;1.50;;
22644;SDS011;11489;50.834;6.752;2023-10-31T05:57:14;2.00;;;1.50;;
22644;SDS011;11489;50.834;6.752;2023-10-31T05:59:39;1.63;;;1.45;;
22644;SDS011;11489;50.834;6.752;2023-10-31T06:02:05;1.98;;;1.60;;
22644;SDS011;11489;50.834;6.752;2023-10-31T06:04:30;2.85;;;1.90;;
22644;SDS011;11489;50.834;6.752;2023-10-31T06:06:56;2.17;;;1.85;;
22644;SDS011;11489;50.834;6.752;2023-10-31T06:09:22;2.00;;;1.55;;
22644;SDS011;11489;50.834;6.752;2023-10-31T06:11:47;2.20;;;1.90;;
22644;SDS011;11489;50.834;6.752;2023-10-31T06:14:13;4.40;;;1.70;;
22644;SDS011;11489;50.834;6.752;2023-10-31T06:16:39;2.88;;;1.83;;
22644;SDS011;11489;50.834;6.752;2023-10-31T06:19:06;2.45;;;1.65;;
22644;SDS011;11489;50.834;6.752;2023-10-31T06:21:31;2.10;;;1.90;;
22644;SDS011;11489;50.834;6.752;2023-10-31T06:23:57;2.97;;;2.08;;
22644;SDS011;11489;50.834;6.752;2023-10-31T06:26:23;2.05;;;1.83;;
22644;SDS011;11489;50.834;6.752;2023-10-31T06:28:48;3.45;;;1.90;;
22644;SDS011;11489;50.834;6.752;2023-10-31T06:31:14;3.30;;;2.10;;
22644;SDS011;11489;50.834;6.752;2023-10-31T06:33:40;4.82;;;2.05;;
22644;SDS011;11489;50.834;6.752;2023-10-31T06:36:06;3.58;;;2.20;;
22644;SDS011;11489;50.834;6.752;2023-10-31T06:38:32;2.53;;;2.00;;
22644;SDS011;11489;50.834;6.752;2023-10-31T06:40:58;4.65;;;2.10;;
22644;SDS011;11489;50.834;6.752;2023-10-31T06:43:24;2.90;;;1.98;;
22644;SDS011;11489;50.834;6.752;2023-10-31T06:45:49;3.25;;;2.20;;
22644;SDS011;11489;50.834;6.752;2023-10-31T06:48:15;2.83;;;2.13;;
22644;SDS011;11489;50.834;6.752;2023-10-31T06:50:41;3.15;;;2.40;;
22644;SDS011;11489;50.834;6.752;2023-10-31T06:53:06;5.28;;;2.30;;
22644;SDS011;11489;50.834;6.752;2023-10-31T06:55:32;4.78;;;2.65;;
22644;SDS011;11489;50.834;6.752;2023-10-31T06:57:58;3.63;;;2.60;;
22644;SDS011;11489;50.834;6.752;2023-10-31T07:00:23;3.95;;;2.75;;
22644;SDS011;11489;50.834;6.752;2023-10-31T07:02:49;3.60;;;2.90;;
22644;SDS011;11489;50.834;6.752;2023-10-31T07:05:15;4.30;;;2.72;;
22644;SDS011;11489;50.834;6.752;2023-10-31T07:07:41;2.97;;;2.50;;
22644;SDS011;11489;50.834;6.752;2023-10-31T07:10:07;2.90;;;2.30;;
22644;SDS011;11489;50.834;6.752;2023-10-31T07:12:33;3.65;;;2.40;;
22644;SDS011;11489;50.834;6.752;2023-10-31T07:14:58;4.05;;;2.65;;
22644;SDS011;11489;50.834;6.752;2023-10-31T07:17:25;3.15;;;2.40;;
22644;SDS011;11489;50.834;6.752;2023-10-31T07:19:51;2.95;;;2.13;;
22644;SDS011;11489;50.834;6.752;2023-10-31T07:22:17;2.60;;;2.40;;
22644;SDS011;11489;50.834;6.752;2023-10-31T07:24:42;3.70;;;2.47;;
22644;SDS011;11489;50.834;6.752;2023-10-31T07:27:08;3.30;;;2.30;;
22644;SDS011;11489;50.834;6.752;2023-10-31T07:29:34;4.13;;;2.17;;
22644;SDS011;11489;50.834;6.752;2023-10-31T07:32:03;3.35;;;2.58;;
22644;SDS011;11489;50.834;6.752;2023-10-31T07:34:29;5.03;;;2.10;;
22644;SDS011;11489;50.834;6.752;2023-10-31T07:36:55;4.10;;;2.40;;
22644;SDS011;11489;50.834;6.752;2023-10-31T07:39:21;3.83;;;2.20;;
22644;SDS011;11489;50.834;6.752;2023-10-31T07:41:48;3.75;;;2.55;;
22644;SDS011;11489;50.834;6.752;2023-10-31T07:44:13;2.95;;;2.28;;
22644;SDS011;11489;50.834;6.752;2023-10-31T07:46:39;3.30;;;2.60;;
22644;SDS011;11489;50.834;6.752;2023-10-31T07:49:05;4.20;;;2.88;;
22644;SDS011;11489;50.834;6.752;2023-10-31T07:51:31;6.55;;;3.22;;
22644;SDS011;11489;50.834;6.752;2023-10-31T07:53:57;5.28;;;3.17;;
22644;SDS011;11489;50.834;6.752;2023-10-31T07:56:24;4.93;;;3.08;;
22644;SDS011;11489;50.834;6.752;2023-10-31T07:58:50;3.35;;;3.05;;
22644;SDS011;11489;50.834;6.752;2023-10-31T08:01:19;5.72;;;3.47;;
22644;SDS011;11489;50.834;6.752;2023-10-31T08:03:47;5.32;;;3.28;;
22644;SDS011;11489;50.834;6.752;2023-10-31T08:06:13;3.60;;;2.78;;
22644;SDS011;11489;50.834;6.752;2023-10-31T08:08:39;6.53;;;3.50;;
22644;SDS011;11489;50.834;6.752;2023-10-31T08:11:08;3.92;;;3.30;;
22644;SDS011;11489;50.834;6.752;2023-10-31T08:13:35;4.38;;;3.50;;
22644;SDS011;11489;50.834;6.752;2023-10-31T08:16:07;4.78;;;3.25;;
22644;SDS011;11489;50.834;6.752;2023-10-31T08:18:33;4.00;;;2.85;;
22644;SDS011;11489;50.834;6.752;2023-10-31T08:20:59;3.58;;;2.85;;
22644;SDS011;11489;50.834;6.752;2023-10-31T08:23:25;3.45;;;2.90;;
22644;SDS011;11489;50.834;6.752;2023-10-31T08:25:51;3.97;;;2.65;;
22644;SDS011;11489;50.834;6.752;2023-10-31T08:28:17;4.43;;;3.00;;
22644;SDS011;11489;50.834;6.752;2023-10-31T08:30:42;2.97;;;2.67;;
22644;SDS011;11489;50.834;6.752;2023-10-31T08:33:08;3.88;;;2.60;;
22644;SDS011;11489;50.834;6.752;2023-10-31T08:35:34;2.78;;;2.17;;
22644;SDS011;11489;50.834;6.752;2023-10-31T08:38:00;5.65;;;2.22;;
22644;SDS011;11489;50.834;6.752;2023-10-31T08:40:25;4.32;;;2.35;;
22644;SDS011;11489;50.834;6.752;2023-10-31T08:42:51;2.88;;;2.00;;
22644;SDS011;11489;50.834;6.752;2023-10-31T08:45:17;4.53;;;2.20;;
22644;SDS011;11489;50.834;6.752;2023-10-31T08:47:43;3.17;;;1.83;;
22644;SDS011;11489;50.834;6.752;2023-10-31T08:50:09;4.38;;;1.90;;
22644;SDS011;11489;50.834;6.752;2023-10-31T08:52:36;2.40;;;2.20;;
22644;SDS011;11489;50.834;6.752;2023-10-31T08:55:02;4.50;;;2.10;;
22644;SDS011;11489;50.834;6.752;2023-10-31T08:57:28;4.43;;;1.90;;
22644;SDS011;11489;50.834;6.752;2023-10-31T08:59:54;3.10;;;2.08;;
22644;SDS011;11489;50.834;6.752;2023-10-31T09:02:20;2.25;;;1.80;;
22644;SDS011;11489;50.834;6.752;2023-10-31T09:04:46;3.70;;;2.03;;
22644;SDS011;11489;50.834;6.752;2023-10-31T09:07:11;2.25;;;1.80;;
22644;SDS011;11489;50.834;6.752;2023-10-31T09:09:37;3.28;;;1.63;;
22644;SDS011;11489;50.834;6.752;2023-10-31T09:12:03;1.95;;;1.77;;
22644;SDS011;11489;50.834;6.752;2023-10-31T09:14:29;2.67;;;1.83;;
22644;SDS011;11489;50.834;6.752;2023-10-31T09:16:54;2.72;;;1.63;;
22644;SDS011;11489;50.834;6.752;2023-10-31T09:19:20;1.77;;;1.40;;
22644;SDS011;11489;50.834;6.752;2023-10-31T09:21:46;3.42;;;1.65;;
22644;SDS011;11489;50.834;6.752;2023-10-31T09:24:11;2.35;;;1.40;;
22644;SDS011;11489;50.834;6.752;2023-10-31T09:26:41;1.63;;;1.20;;
22644;SDS011;11489;50.834;6.752;2023-10-31T09:29:08;2.05;;;1.23;;
22644;SDS011;11489;50.834;6.752;2023-10-31T09:31:35;1.70;;;1.00;;
22644;SDS011;11489;50.834;6.752;2023-10-31T09:34:00;3.38;;;1.20;;
22644;SDS011;11489;50.834;6.752;2023-10-31T09:36:28;1.85;;;1.20;;
22644;SDS011;11489;50.834;6.752;2023-10-31T09:38:56;0.90;;;0.80;;
22644;SDS011;11489;50.834;6.752;2023-10-31T09:41:22;2.08;;;1.10;;
22644;SDS011;11489;50.834;6.752;2023-10-31T09:43:48;0.90;;;0.60;;
22644;SDS011;11489;50.834;6.752;2023-10-31T09:46:15;1.10;;;0.90;;
22644;SDS011;11489;50.834;6.752;2023-10-31T09:48:41;3.05;;;1.00;;
22644;SDS011;11489;50.834;6.752;2023-10-31T09:51:08;1.55;;;0.80;;
22644;SDS011;11489;50.834;6.752;2023-10-31T09:53:34;3.30;;;0.75;;
22644;SDS011;11489;50.834;6.752;2023-10-31T09:56:06;2.35;;;1.00;;
22644;SDS011;11489;50.834;6.752;2023-10-31T09:58:32;0.93;;;0.80;;
22644;SDS011;11489;50.834;6.752;2023-10-31T10:00:59;1.13;;;0.75;;
22644;SDS011;11489;50.834;6.752;2023-10-31T10:03:25;1.42;;;0.70;;
22644;SDS011;11489;50.834;6.752;2023-10-31T10:05:52;0.57;;;0.55;;
22644;SDS011;11489;50.834;6.752;2023-10-31T10:08:19;1.33;;;0.70;;
22644;SDS011;11489;50.834;6.752;2023-10-31T10:10:45;1.38;;;0.80;;
22644;SDS011;11489;50.834;6.752;2023-10-31T10:13:11;0.98;;;0.63;;
22644;SDS011;11489;50.834;6.752;2023-10-31T10:15:47;2.80;;;0.80;;
22644;SDS011;11489;50.834;6.752;2023-10-31T10:18:30;0.90;;;0.70;;
22644;SDS011;11489;50.834;6.752;2023-10-31T10:21:01;0.82;;;0.60;;
22644;SDS011;11489;50.834;6.752;2023-10-31T10:23:28;1.02;;;0.50;;
22644;SDS011;11489;50.834;6.752;2023-10-31T10:25:54;3.78;;;0.57;;
22644;SDS011;11489;50.834;6.752;2023-10-31T10:28:22;0.73;;;0.50;;
22644;SDS011;11489;50.834;6.752;2023-10-31T10:30:51;0.90;;;0.40;;
22644;SDS011;11489;50.834;6.752;2023-10-31T10:33:19;0.90;;;0.50;;
22644;SDS011;11489;50.834;6.752;2023-10-31T10:35:45;0.52;;;0.50;;
22644;SDS011;11489;50.834;6.752;2023-10-31T10:38:12;1.42;;;0.52;;
22644;SDS011;11489;50.834;6.752;2023-10-31T10:40:41;0.60;;;0.45;;
22644;SDS011;11489;50.834;6.752;2023-10-31T10:43:12;4.40;;;0.68;;
22644;SDS011;11489;50.834;6.752;2023-10-31T10:45:43;2.05;;;0.50;;
22644;SDS011;11489;50.834;6.752;2023-10-31T10:48:10;1.52;;;0.70;;
22644;SDS011;11489;50.834;6.752;2023-10-31T10:50:41;1.50;;;0.50;;
22644;SDS011;11489;50.834;6.752;2023-10-31T10:53:09;0.60;;;0.50;;
22644;SDS011;11489;50.834;6.752;2023-10-31T10:55:46;0.47;;;0.47;;
22644;SDS011;11489;50.834;6.752;2023-10-31T11:01:02;1.75;;;0.70;;
22644;SDS011;11489;50.834;6.752;2023-10-31T11:03:30;1.13;;;0.52;;
22644;SDS011;11489;50.834;6.752;2023-10-31T11:05:57;1.13;;;0.60;;
22644;SDS011;11489;50.834;6.752;2023-10-31T11:08:24;3.42;;;0.60;;
22644;SDS011;11489;50.834;6.752;2023-10-31T11:10:52;1.80;;;0.52;;
22644;SDS011;11489;50.834;6.752;2023-10-31T11:13:19;1.58;;;0.65;;
22644;SDS011;11489;50.834;6.752;2023-10-31T11:15:46;2.05;;;0.70;;
22644;SDS011;11489;50.834;6.752;2023-10-31T11:18:16;2.35;;;0.70;;
22644;SDS011;11489;50.834;6.752;2023-10-31T11:20:42;1.27;;;0.60;;
22644;SDS011;11489;50.834;6.752;2023-10-31T11:23:08;3.15;;;0.63;;
22644;SDS011;11489;50.834;6.752;2023-10-31T11:25:34;2.97;;;0.73;;
22644;SDS011;11489;50.834;6.752;2023-10-31T11:30:42;2.25;;;0.75;;
22644;SDS011;11489;50.834;6.752;2023-10-31T11:33:11;0.77;;;0.60;;
22644;SDS011;11489;50.834;6.752;2023-10-31T11:35:40;0.88;;;0.70;;
22644;SDS011;11489;50.834;6.752;2023-10-31T11:38:07;0.80;;;0.60;;
22644;SDS011;11489;50.834;6.752;2023-10-31T11:40:34;2.05;;;0.77;;
22644;SDS011;11489;50.834;6.752;2023-10-31T11:46:05;2.22;;;0.82;;
22644;SDS011;11489;50.834;6.752;2023-10-31T11:48:48;0.55;;;0.55;;
22644;SDS011;11489;50.834;6.752;2023-10-31T11:51:18;3.42;;;0.68;;
22644;SDS011;11489;50.834;6.752;2023-10-31T11:53:44;3.22;;;0.75;;
22644;SDS011;11489;50.834;6.752;2023-10-31T11:56:11;1.83;;;0.80;;
22644;SDS011;11489;50.834;6.752;2023-10-31T11:58:37;1.50;;;0.70;;
22644;SDS011;11489;50.834;6.752;2023-10-31T12:01:12;1.65;;;0.60;;
22644;SDS011;11489;50.834;6.752;2023-10-31T12:03:38;2.53;;;0.70;;
22644;SDS011;11489;50.834;6.752;2023-10-31T12:06:08;2.55;;;0.50;;
22644;SDS011;11489;50.834;6.752;2023-10-31T12:08:36;2.55;;;0.60;;
22644;SDS011;11489;50.834;6.752;2023-10-31T12:11:13;3.70;;;0.70;;
22644;SDS011;11489;50.834;6.752;2023-10-31T12:13:56;1.38;;;0.60;;
22644;SDS011;11489;50.834;6.752;2023-10-31T12:16:30;1.38;;;0.50;;
22644;SDS011;11489;50.834;6.752;2023-10-31T12:18:56;2.15;;;0.85;;
22644;SDS011;11489;50.834;6.752;2023-10-31T12:21:36;2.88;;;0.88;;
22644;SDS011;11489;50.834;6.752;2023-10-31T12:24:12;1.90;;;0.77;;
22644;SDS011;11489;50.834;6.752;2023-10-31T12:26:39;2.67;;;0.73;;
22644;SDS011;11489;50.834;6.752;2023-10-31T12:29:09;1.58;;;0.80;;
22644;SDS011;11489;50.834;6.752;2023-10-31T12:31:39;1.40;;;0.63;;
22644;SDS011;11489;50.834;6.752;2023-10-31T12:34:09;1.08;;;0.60;;
22644;SDS011;11489;50.834;6.752;2023-10-31T12:36:35;2.47;;;0.70;;
22644;SDS011;11489;50.834;6.752;2023-10-31T12:39:02;2.17;;;0.80;;
22644;SDS011;11489;50.834;6.752;2023-10-31T12:41:29;2.13;;;0.60;;
22644;SDS011;11489;50.834;6.752;2023-10-31T12:43:56;1.55;;;0.70;;
22644;SDS011;11489;50.834;6.752;2023-10-31T12:46:28;1.90;;;0.75;;
22644;SDS011;11489;50.834;6.752;2023-10-31T12:48:55;0.55;;;0.45;;
22644;SDS011;11489;50.834;6.752;2023-10-31T12:51:21;0.65;;;0.60;;
22644;SDS011;11489;50.834;6.752;2023-10-31T12:53:51;1.95;;;0.65;;
22644;SDS011;11489;50.834;6.752;2023-10-31T12:59:07;1.77;;;0.88;;
22644;SDS011;11489;50.834;6.752;2023-10-31T13:01:34;4.00;;;0.80;;
22644;SDS011;11489;50.834;6.752;2023-10-31T13:04:09;4.43;;;0.70;;
22644;SDS011;11489;50.834;6.752;2023-10-31T13:06:35;2.20;;;0.77;;
22644;SDS011;11489;50.834;6.752;2023-10-31T13:09:01;2.50;;;0.60;;
22644;SDS011;11489;50.834;6.752;2023-10-31T13:11:30;1.48;;;0.50;;
22644;SDS011;11489;50.834;6.752;2023-10-31T13:13:57;1.52;;;0.63;;
22644;SDS011;11489;50.834;6.752;2023-10-31T13:16:23;3.53;;;0.80;;
22644;SDS011;11489;50.834;6.752;2023-10-31T13:18:53;1.50;;;0.70;;
22644;SDS011;11489;50.834;6.752;2023-10-31T13:21:19;2.05;;;0.70;;
22644;SDS011;11489;50.834;6.752;2023-10-31T13:23:45;2.40;;;0.70;;
22644;SDS011;11489;50.834;6.752;2023-10-31T13:26:13;1.58;;;0.65;;
22644;SDS011;11489;50.834;6.752;2023-10-31T13:28:39;1.88;;;0.80;;
22644;SDS011;11489;50.834;6.752;2023-10-31T13:31:06;2.85;;;0.80;;
22644;SDS011;11489;50.834;6.752;2023-10-31T13:33:32;3.90;;;0.70;;
22644;SDS011;11489;50.834;6.752;2023-10-31T13:35:58;3.35;;;0.85;;
22644;SDS011;11489;50.834;6.752;2023-10-31T13:38:24;1.95;;;0.80;;
22644;SDS011;11489;50.834;6.752;2023-10-31T13:40:49;3.30;;;0.60;;
22644;SDS011;11489;50.834;6.752;2023-10-31T13:43:15;1.50;;;0.70;;
22644;SDS011;11489;50.834;6.752;2023-10-31T13:45:41;1.90;;;0.63;;
22644;SDS011;11489;50.834;6.752;2023-10-31T13:48:06;5.72;;;0.73;;
22644;SDS011;11489;50.834;6.752;2023-10-31T13:50:32;1.98;;;0.60;;
22644;SDS011;11489;50.834;6.752;2023-10-31T13:52:58;1.30;;;0.60;;
22644;SDS011;11489;50.834;6.752;2023-10-31T13:55:24;2.17;;;0.70;;
22644;SDS011;11489;50.834;6.752;2023-10-31T13:57:50;4.05;;;0.77;;
22644;SDS011;11489;50.834;6.752;2023-10-31T14:00:16;3.30;;;0.63;;
22644;SDS011;11489;50.834;6.752;2023-10-31T14:02:42;2.35;;;0.93;;
22644;SDS011;11489;50.834;6.752;2023-10-31T14:05:08;2.58;;;0.70;;
22644;SDS011;11489;50.834;6.752;2023-10-31T14:07:33;1.58;;;0.77;;
22644;SDS011;11489;50.834;6.752;2023-10-31T14:10:00;3.65;;;0.75;;
22644;SDS011;11489;50.834;6.752;2023-10-31T14:12:26;4.32;;;0.80;;
22644;SDS011;11489;50.834;6.752;2023-10-31T14:14:53;2.97;;;0.60;;
22644;SDS011;11489;50.834;6.752;2023-10-31T14:17:19;2.40;;;0.50;;
22644;SDS011;11489;50.834;6.752;2023-10-31T14:19:45;3.40;;;0.80;;
22644;SDS011;11489;50.834;6.752;2023-10-31T14:22:13;2.58;;;0.70;;
22644;SDS011;11489;50.834;6.752;2023-10-31T14:24:39;3.67;;;0.55;;
22644;SDS011;11489;50.834;6.752;2023-10-31T14:27:05;1.60;;;0.70;;
22644;SDS011;11489;50.834;6.752;2023-10-31T14:29:31;2.17;;;0.50;;
22644;SDS011;11489;50.834;6.752;2023-10-31T14:31:56;3.97;;;0.80;;
22644;SDS011;11489;50.834;6.752;2023-10-31T14:34:30;1.42;;;0.70;;
22644;SDS011;11489;50.834;6.752;2023-10-31T14:36:56;4.20;;;0.95;;
22644;SDS011;11489;50.834;6.752;2023-10-31T14:39:21;2.10;;;0.90;;
22644;SDS011;11489;50.834;6.752;2023-10-31T14:41:47;2.75;;;0.80;;
22644;SDS011;11489;50.834;6.752;2023-10-31T14:44:12;1.65;;;0.82;;
22644;SDS011;11489;50.834;6.752;2023-10-31T14:46:38;5.20;;;0.85;;
22644;SDS011;11489;50.834;6.752;2023-10-31T14:49:04;2.33;;;0.80;;
22644;SDS011;11489;50.834;6.752;2023-10-31T14:51:30;3.45;;;0.90;;
22644;SDS011;11489;50.834;6.752;2023-10-31T14:53:56;2.85;;;0.98;;
22644;SDS011;11489;50.834;6.752;2023-10-31T14:56:23;3.03;;;1.10;;